createdAt,value
2022-08-31T00:09:14.213Z,25.58
2022-08-31T00:19:21.043Z,25.54
2022-08-31T00:29:27.725Z,25.47
2022-08-31T00:39:33.876Z,25.59
2022-08-31T00:49:40.369Z,25.44
2022-08-31T00:59:46.473Z,25.55
2022-08-31T01:09:55.723Z,25.46
2022-08-31T01:20:02.636Z,25.49
2022-08-31T01:30:08.904Z,25.48
2022-08-31T01:40:15.920Z,25.44
2022-08-31T01:50:22.745Z,25.41
2022-08-31T02:00:29.151Z,25.34
2022-08-31T02:10:35.950Z,25.43
2022-08-31T02:20:42.230Z,25.41
2022-08-31T02:30:48.946Z,25.34
2022-08-31T02:40:55.647Z,25.32
2022-08-31T02:51:01.926Z,25.24
2022-08-31T03:01:08.253Z,25.42
2022-08-31T03:11:14.735Z,25.29
2022-08-31T03:21:21.064Z,25.27
2022-08-31T03:31:27.184Z,25.23
2022-08-31T03:41:33.315Z,25.33
2022-08-31T03:51:39.801Z,25.35
2022-08-31T04:01:46.149Z,25.30
2022-08-31T04:11:52.561Z,25.18
2022-08-31T04:21:59.464Z,25.16
2022-08-31T04:32:05.239Z,25.32
2022-08-31T04:42:11.270Z,25.28
2022-08-31T04:52:17.678Z,25.29
2022-08-31T05:02:28.340Z,25.25
2022-08-31T05:12:35.236Z,25.21
2022-08-31T05:22:41.051Z,25.24
2022-08-31T05:32:47.430Z,25.22
2022-08-31T05:42:54.069Z,25.24
2022-08-31T05:53:00.877Z,25.24
2022-08-31T06:03:08.181Z,25.23
2022-08-31T06:13:15.423Z,25.16
2022-08-31T06:23:22.867Z,25.19
2022-08-31T06:33:30.086Z,25.24
2022-08-31T06:43:36.348Z,25.28
2022-08-31T06:53:43.024Z,25.25
2022-08-31T07:03:49.666Z,25.27
2022-08-31T07:13:56.283Z,25.32
2022-08-31T07:24:02.666Z,25.41
2022-08-31T07:34:08.929Z,25.45
2022-08-31T07:44:15.557Z,25.45
2022-08-31T07:54:22.519Z,25.43
2022-08-31T08:04:29.051Z,25.44
2022-08-31T08:14:36.074Z,25.34
2022-08-31T08:24:42.699Z,25.54
2022-08-31T08:34:49.091Z,25.56
2022-08-31T08:44:54.898Z,25.49
2022-08-31T08:55:01.201Z,25.43
2022-08-31T09:05:07.491Z,25.33
2022-08-31T09:15:13.862Z,25.40
2022-08-31T09:25:20.632Z,25.36
2022-08-31T09:35:27.411Z,25.35
2022-08-31T09:45:33.384Z,25.34
2022-08-31T09:55:40.234Z,25.35
2022-08-31T10:05:46.222Z,25.34
2022-08-31T10:15:52.241Z,25.31
2022-08-31T10:25:59.187Z,25.32
2022-08-31T10:36:05.829Z,25.35
2022-08-31T10:46:12.290Z,25.35
2022-08-31T10:56:18.364Z,25.39
2022-08-31T11:06:25.223Z,25.46
2022-08-31T11:16:31.342Z,25.47
2022-08-31T11:26:39.404Z,25.51
2022-08-31T11:36:46.306Z,25.47
2022-08-31T11:46:53.685Z,25.54
2022-08-31T11:57:00.798Z,25.57
2022-08-31T12:07:07.575Z,25.55
2022-08-31T12:17:14.419Z,25.52
2022-08-31T12:27:21.362Z,25.57
2022-08-31T12:37:27.483Z,25.53
2022-08-31T12:47:34.465Z,25.61
2022-08-31T12:57:41.424Z,25.64
2022-08-31T13:07:49.409Z,25.66
2022-08-31T13:17:55.880Z,25.69
2022-08-31T13:28:02.746Z,25.68
2022-08-31T13:38:09.452Z,25.70
2022-08-31T13:48:15.753Z,25.69
2022-08-31T13:58:21.608Z,25.74
2022-08-31T14:08:28.087Z,25.74
2022-08-31T14:18:35.420Z,25.77
2022-08-31T14:28:42.304Z,25.76
2022-08-31T14:38:48.368Z,25.80
2022-08-31T14:48:55.139Z,25.80
2022-08-31T14:59:01.538Z,25.78
2022-08-31T15:09:09.003Z,25.79
2022-08-31T15:19:15.766Z,25.82
2022-08-31T15:29:22.145Z,25.87
2022-08-31T15:39:29.238Z,25.86
2022-08-31T15:49:36.186Z,25.88
2022-08-31T15:59:42.710Z,25.96
2022-08-31T16:09:50.059Z,25.96
2022-08-31T16:19:56.788Z,25.97
2022-08-31T16:30:03.779Z,25.97
2022-08-31T16:40:11.045Z,25.95
2022-08-31T16:50:18.145Z,25.95
2022-08-31T17:00:27.958Z,25.97
2022-08-31T17:10:36.923Z,25.94
2022-08-31T17:20:44.138Z,25.95
2022-08-31T17:30:51.636Z,25.93
2022-08-31T17:40:59.132Z,25.87
2022-08-31T17:51:06.531Z,25.83
2022-08-31T18:01:13.533Z,25.87
2022-08-31T18:11:20.156Z,25.98
2022-08-31T18:21:26.952Z,25.96
2022-08-31T18:31:33.248Z,25.96
2022-08-31T18:41:40.518Z,26.04
2022-08-31T18:51:46.623Z,26.10
2022-08-31T19:01:53.031Z,26.07
2022-08-31T19:11:59.771Z,26.11
2022-08-31T19:22:06.895Z,26.08
2022-08-31T19:32:13.864Z,26.03
2022-08-31T19:42:21.102Z,26.05
2022-08-31T19:52:28.166Z,26.07
2022-08-31T20:02:35.573Z,26.04
2022-08-31T20:12:42.938Z,26.02
2022-08-31T20:22:50.204Z,26.03
2022-08-31T20:32:57.175Z,25.98
2022-08-31T20:43:03.869Z,26.06
2022-08-31T20:53:10.272Z,26.05
2022-08-31T21:03:17.189Z,26.03
2022-08-31T21:13:23.536Z,26.02
2022-08-31T21:23:30.384Z,26.03
2022-08-31T21:33:37.022Z,26.03
2022-08-31T21:43:43.887Z,26.01
2022-08-31T21:53:51.190Z,26.02
2022-08-31T22:03:58.669Z,26.04
2022-08-31T22:14:05.527Z,25.99
2022-08-31T22:24:12.194Z,26.07
2022-08-31T22:34:23.689Z,26.04
2022-08-31T22:44:30.487Z,26.03
2022-08-31T22:54:37.094Z,26.00
2022-08-31T23:04:44.051Z,25.96
2022-08-31T23:14:50.723Z,25.94
2022-08-31T23:24:57.546Z,25.98
2022-08-31T23:35:04.110Z,25.92
2022-08-31T23:45:10.612Z,25.80
2022-08-31T23:55:16.675Z,25.83
